sensor_id;sensor_type;location;lat;lon;timestamp;pressure;altitude;pressure_sealevel;temperature;humidity
71917;BME280;59793;46.506;6.674;2023-02-19T00:01:10;98120.16;;;10.24;68.00
71917;BME280;59793;46.506;6.674;2023-02-19T00:03:37;98127.16;;;10.37;67.73
71917;BME280;59793;46.506;6.674;2023-02-19T00:06:04;98138.28;;;10.51;67.25
71917;BME280;59793;46.506;6.674;2023-02-19T00:08:31;98139.38;;;10.50;67.56
71917;BME280;59793;46.506;6.674;2023-02-19T00:11:04;98143.72;;;10.46;67.55
71917;BME280;59793;46.506;6.674;2023-02-19T00:13:34;98090.59;;;10.01;68.34
71917;BME280;59793;46.506;6.674;2023-02-19T00:16:14;98110.38;;;10.24;67.49
71917;BME280;59793;46.506;6.674;2023-02-19T00:18:40;98147.28;;;10.42;67.21
71917;BME280;59793;46.506;6.674;2023-02-19T00:21:06;98115.38;;;10.09;67.91
71917;BME280;59793;46.506;6.674;2023-02-19T00:23:32;98133.94;;;9.95;69.08
71917;BME280;59793;46.506;6.674;2023-02-19T00:26:05;98088.44;;;9.77;68.73
71917;BME280;59793;46.506;6.674;2023-02-19T00:28:31;98109.00;;;9.92;68.65
71917;BME280;59793;46.506;6.674;2023-02-19T00:31:07;98131.00;;;9.96;69.30
71917;BME280;59793;46.506;6.674;2023-02-19T00:33:33;98135.03;;;9.94;70.03
71917;BME280;59793;46.506;6.674;2023-02-19T00:36:03;98134.75;;;10.04;69.71
71917;BME280;59793;46.506;6.674;2023-02-19T00:38:35;98137.84;;;9.97;69.51
71917;BME280;59793;46.506;6.674;2023-02-19T00:41:01;98110.06;;;9.48;70.75
71917;BME280;59793;46.506;6.674;2023-02-19T00:46:23;98111.56;;;9.31;71.29
71917;BME280;59793;46.506;6.674;2023-02-19T00:48:49;98133.91;;;9.51;71.18
71917;BME280;59793;46.506;6.674;2023-02-19T00:51:15;98139.31;;;9.55;71.34
71917;BME280;59793;46.506;6.674;2023-02-19T00:53:41;98116.53;;;9.42;71.56
71917;BME280;59793;46.506;6.674;2023-02-19T00:56:07;98119.00;;;9.38;71.59
71917;BME280;59793;46.506;6.674;2023-02-19T00:58:33;98141.63;;;9.56;71.39
71917;BME280;59793;46.506;6.674;2023-02-19T01:00:58;98137.91;;;9.40;72.36
71917;BME280;59793;46.506;6.674;2023-02-19T01:03:24;98146.09;;;9.39;72.62
71917;BME280;59793;46.506;6.674;2023-02-19T01:05:50;98115.88;;;9.27;72.21
71917;BME280;59793;46.506;6.674;2023-02-19T01:08:15;98117.53;;;9.15;72.56
71917;BME280;59793;46.506;6.674;2023-02-19T01:10:41;98145.03;;;9.48;72.37
71917;BME280;59793;46.506;6.674;2023-02-19T01:13:08;98112.53;;;9.44;71.38
71917;BME280;59793;46.506;6.674;2023-02-19T01:15:34;98055.84;;;9.21;70.55
71917;BME280;59793;46.506;6.674;2023-02-19T01:17:59;98104.03;;;9.47;70.74
71917;BME280;59793;46.506;6.674;2023-02-19T01:20:25;98143.19;;;9.57;70.85
71917;BME280;59793;46.506;6.674;2023-02-19T01:22:51;98091.75;;;9.25;70.66
71917;BME280;59793;46.506;6.674;2023-02-19T01:25:16;98133.41;;;9.49;71.22
71917;BME280;59793;46.506;6.674;2023-02-19T01:27:41;98093.19;;;9.40;70.69
71917;BME280;59793;46.506;6.674;2023-02-19T01:30:07;98122.94;;;9.58;70.51
71917;BME280;59793;46.506;6.674;2023-02-19T01:32:33;98143.38;;;9.70;70.63
71917;BME280;59793;46.506;6.674;2023-02-19T01:34:58;98142.72;;;9.64;70.39
71917;BME280;59793;46.506;6.674;2023-02-19T01:37:23;98112.69;;;9.56;70.36
71917;BME280;59793;46.506;6.674;2023-02-19T01:39:50;98105.53;;;9.31;71.03
71917;BME280;59793;46.506;6.674;2023-02-19T01:42:16;98132.66;;;9.57;70.71
71917;BME280;59793;46.506;6.674;2023-02-19T01:47:07;98124.16;;;9.52;70.63
71917;BME280;59793;46.506;6.674;2023-02-19T01:49:40;98112.81;;;9.34;71.36
71917;BME280;59793;46.506;6.674;2023-02-19T01:52:31;98109.75;;;9.41;70.44
71917;BME280;59793;46.506;6.674;2023-02-19T01:55:02;98108.22;;;9.48;70.65
71917;BME280;59793;46.506;6.674;2023-02-19T01:57:32;98105.69;;;9.26;71.38
71917;BME280;59793;46.506;6.674;2023-02-19T02:00:08;98115.41;;;9.25;71.76
71917;BME280;59793;46.506;6.674;2023-02-19T02:02:34;98107.06;;;9.32;71.50
71917;BME280;59793;46.506;6.674;2023-02-19T02:05:00;98091.91;;;9.29;71.42
71917;BME280;59793;46.506;6.674;2023-02-19T02:07:26;98102.13;;;9.39;71.13
71917;BME280;59793;46.506;6.674;2023-02-19T02:10:10;98097.81;;;9.43;71.32
71917;BME280;59793;46.506;6.674;2023-02-19T02:12:46;98091.50;;;9.44;71.19
71917;BME280;59793;46.506;6.674;2023-02-19T02:15:12;98089.03;;;9.56;71.63
71917;BME280;59793;46.506;6.674;2023-02-19T02:28:05;98093.75;;;9.20;72.11
71917;BME280;59793;46.506;6.674;2023-02-19T02:30:50;98080.19;;;8.86;72.84
71917;BME280;59793;46.506;6.674;2023-02-19T02:38:20;98063.34;;;8.88;72.84
71917;BME280;59793;46.506;6.674;2023-02-19T02:40:46;98065.22;;;8.96;72.51
71917;BME280;59793;46.506;6.674;2023-02-19T02:43:12;98045.41;;;8.90;72.24
71917;BME280;59793;46.506;6.674;2023-02-19T02:45:38;98068.88;;;8.77;73.21
71917;BME280;59793;46.506;6.674;2023-02-19T02:48:39;98077.59;;;8.95;73.23
71917;BME280;59793;46.506;6.674;2023-02-19T02:53:50;98075.88;;;8.91;72.58
71917;BME280;59793;46.506;6.674;2023-02-19T02:56:36;98077.38;;;8.83;72.92
71917;BME280;59793;46.506;6.674;2023-02-19T02:59:04;98068.44;;;8.84;72.91
71917;BME280;59793;46.506;6.674;2023-02-19T03:01:42;98074.47;;;8.93;72.16
71917;BME280;59793;46.506;6.674;2023-02-19T03:07:33;98072.75;;;8.80;72.62
71917;BME280;59793;46.506;6.674;2023-02-19T03:10:02;98070.59;;;8.82;72.57
71917;BME280;59793;46.506;6.674;2023-02-19T03:12:29;98057.94;;;8.84;72.21
71917;BME280;59793;46.506;6.674;2023-02-19T03:15:15;98057.50;;;8.91;72.27
71917;BME280;59793;46.506;6.674;2023-02-19T03:18:02;98057.94;;;8.93;71.90
71917;BME280;59793;46.506;6.674;2023-02-19T03:20:51;98069.03;;;8.81;73.02
71917;BME280;59793;46.506;6.674;2023-02-19T03:23:19;98064.06;;;8.79;72.92
71917;BME280;59793;46.506;6.674;2023-02-19T03:26:08;98067.63;;;8.75;72.60
71917;BME280;59793;46.506;6.674;2023-02-19T03:28:37;98024.09;;;8.20;73.38
71917;BME280;59793;46.506;6.674;2023-02-19T03:31:23;98061.25;;;8.13;75.04
71917;BME280;59793;46.506;6.674;2023-02-19T03:33:54;98027.34;;;7.81;75.99
71917;BME280;59793;46.506;6.674;2023-02-19T03:36:22;98007.81;;;7.87;75.29
71917;BME280;59793;46.506;6.674;2023-02-19T03:39:04;98047.22;;;8.41;74.79
71917;BME280;59793;46.506;6.674;2023-02-19T03:41:44;98042.47;;;8.51;74.78
71917;BME280;59793;46.506;6.674;2023-02-19T03:44:37;98040.34;;;8.53;74.23
71917;BME280;59793;46.506;6.674;2023-02-19T03:47:27;98043.81;;;8.71;72.94
71917;BME280;59793;46.506;6.674;2023-02-19T03:50:15;98049.66;;;8.68;72.91
71917;BME280;59793;46.506;6.674;2023-02-19T03:52:54;98042.97;;;8.53;72.97
71917;BME280;59793;46.506;6.674;2023-02-19T03:55:31;98041.44;;;8.07;75.13
71917;BME280;59793;46.506;6.674;2023-02-19T03:58:08;98050.75;;;8.13;75.41
71917;BME280;59793;46.506;6.674;2023-02-19T04:00:49;98042.03;;;8.04;75.18
71917;BME280;59793;46.506;6.674;2023-02-19T04:03:37;98056.41;;;8.07;75.70
71917;BME280;59793;46.506;6.674;2023-02-19T04:06:09;98057.19;;;8.07;76.07
71917;BME280;59793;46.506;6.674;2023-02-19T04:08:37;98058.00;;;7.94;76.63
71917;BME280;59793;46.506;6.674;2023-02-19T04:11:04;98054.94;;;7.92;76.68
71917;BME280;59793;46.506;6.674;2023-02-19T04:13:46;98055.81;;;7.87;76.47
71917;BME280;59793;46.506;6.674;2023-02-19T04:16:22;98052.72;;;7.85;77.50
71917;BME280;59793;46.506;6.674;2023-02-19T04:18:51;98045.13;;;7.84;77.86
71917;BME280;59793;46.506;6.674;2023-02-19T04:21:19;98065.72;;;8.13;76.48
71917;BME280;59793;46.506;6.674;2023-02-19T04:23:46;98058.91;;;8.12;75.69
71917;BME280;59793;46.506;6.674;2023-02-19T04:26:13;98018.25;;;7.78;75.97
71917;BME280;59793;46.506;6.674;2023-02-19T04:28:39;98072.63;;;8.09;76.20
71917;BME280;59793;46.506;6.674;2023-02-19T04:31:07;98057.97;;;8.08;77.04
71917;BME280;59793;46.506;6.674;2023-02-19T04:33:33;98073.03;;;8.25;77.47
71917;BME280;59793;46.506;6.674;2023-02-19T04:35:58;98049.19;;;8.12;77.03
71917;BME280;59793;46.506;6.674;2023-02-19T04:38:24;98061.28;;;8.22;76.47
71917;BME280;59793;46.506;6.674;2023-02-19T04:40:50;98104.09;;;8.45;76.73
71917;BME280;59793;46.506;6.674;2023-02-19T04:43:16;98067.84;;;8.33;76.08
71917;BME280;59793;46.506;6.674;2023-02-19T04:45:42;98104.63;;;8.56;75.40
71917;BME280;59793;46.506;6.674;2023-02-19T04:48:07;98109.97;;;8.73;74.49
71917;BME280;59793;46.506;6.674;2023-02-19T04:50:32;98106.16;;;8.57;74.24
71917;BME280;59793;46.506;6.674;2023-02-19T04:52:58;98110.88;;;8.46;73.96
71917;BME280;59793;46.506;6.674;2023-02-19T04:55:23;98094.66;;;8.44;73.83
71917;BME280;59793;46.506;6.674;2023-02-19T04:57:49;98102.88;;;8.51;73.94
71917;BME280;59793;46.506;6.674;2023-02-19T05:00:14;98131.47;;;8.53;74.45
71917;BME280;59793;46.506;6.674;2023-02-19T05:02:39;98115.41;;;8.32;75.80
71917;BME280;59793;46.506;6.674;2023-02-19T05:05:06;98138.84;;;8.42;75.63
71917;BME280;59793;46.506;6.674;2023-02-19T05:07:32;98111.53;;;8.29;75.41
71917;BME280;59793;46.506;6.674;2023-02-19T05:09:57;98101.97;;;8.33;75.81
71917;BME280;59793;46.506;6.674;2023-02-19T05:12:24;98120.22;;;8.52;74.94
71917;BME280;59793;46.506;6.674;2023-02-19T05:14:49;98087.00;;;8.34;75.65
71917;BME280;59793;46.506;6.674;2023-02-19T05:17:15;98105.63;;;8.46;75.80
71917;BME280;59793;46.506;6.674;2023-02-19T05:19:40;98114.91;;;8.75;74.33
71917;BME280;59793;46.506;6.674;2023-02-19T05:22:06;98031.41;;;8.32;74.19
71917;BME280;59793;46.506;6.674;2023-02-19T05:24:31;98106.34;;;8.92;73.49
71917;BME280;59793;46.506;6.674;2023-02-19T05:26:56;98087.88;;;8.83;73.20
71917;BME280;59793;46.506;6.674;2023-02-19T05:29:22;98064.69;;;8.76;72.70
71917;BME280;59793;46.506;6.674;2023-02-19T05:31:47;98043.63;;;8.68;72.47
71917;BME280;59793;46.506;6.674;2023-02-19T05:34:13;98038.66;;;8.57;73.53
71917;BME280;59793;46.506;6.674;2023-02-19T05:36:38;98054.47;;;8.75;73.61
71917;BME280;59793;46.506;6.674;2023-02-19T05:39:04;98056.28;;;8.66;74.61
71917;BME280;59793;46.506;6.674;2023-02-19T05:41:31;98060.16;;;8.68;74.69
71917;BME280;59793;46.506;6.674;2023-02-19T05:43:57;98068.56;;;8.79;74.09
71917;BME280;59793;46.506;6.674;2023-02-19T05:46:24;98065.25;;;8.65;74.60
71917;BME280;59793;46.506;6.674;2023-02-19T05:48:51;98013.13;;;8.27;75.28
71917;BME280;59793;46.506;6.674;2023-02-19T05:51:18;98035.91;;;8.63;74.38
71917;BME280;59793;46.506;6.674;2023-02-19T05:53:44;98029.16;;;8.39;74.88
71917;BME280;59793;46.506;6.674;2023-02-19T05:58:50;98066.50;;;8.13;76.28
71917;BME280;59793;46.506;6.674;2023-02-19T06:01:17;98069.47;;;7.98;78.11
71917;BME280;59793;46.506;6.674;2023-02-19T06:03:43;98027.97;;;7.78;77.74
71917;BME280;59793;46.506;6.674;2023-02-19T06:06:12;98014.25;;;7.81;77.80
71917;BME280;59793;46.506;6.674;2023-02-19T06:08:38;97989.41;;;7.78;76.84
71917;BME280;59793;46.506;6.674;2023-02-19T06:11:03;98059.75;;;8.44;75.83
71917;BME280;59793;46.506;6.674;2023-02-19T06:13:29;98027.66;;;8.24;75.67
71917;BME280;59793;46.506;6.674;2023-02-19T06:15:54;98043.69;;;8.45;75.61
71917;BME280;59793;46.506;6.674;2023-02-19T06:18:20;98056.09;;;8.53;75.39
71917;BME280;59793;46.506;6.674;2023-02-19T06:20:45;98098.03;;;8.67;75.25
71917;BME280;59793;46.506;6.674;2023-02-19T06:23:11;98070.47;;;8.56;74.55
71917;BME280;59793;46.506;6.674;2023-02-19T06:25:36;98075.41;;;8.57;74.33
71917;BME280;59793;46.506;6.674;2023-02-19T06:28:01;98103.13;;;8.64;74.73
71917;BME280;59793;46.506;6.674;2023-02-19T06:30:27;98089.03;;;8.59;74.82
71917;BME280;59793;46.506;6.674;2023-02-19T06:32:52;98075.84;;;8.51;74.51
71917;BME280;59793;46.506;6.674;2023-02-19T06:35:19;98118.81;;;8.86;73.56
71917;BME280;59793;46.506;6.674;2023-02-19T06:37:48;98127.03;;;8.84;73.24
71917;BME280;59793;46.506;6.674;2023-02-19T06:40:14;98124.16;;;8.72;72.92
71917;BME280;59793;46.506;6.674;2023-02-19T06:42:39;98119.81;;;8.68;72.63
71917;BME280;59793;46.506;6.674;2023-02-19T06:45:05;98131.94;;;8.77;72.90
71917;BME280;59793;46.506;6.674;2023-02-19T06:47:31;98145.41;;;8.84;72.95
71917;BME280;59793;46.506;6.674;2023-02-19T06:49:57;98142.00;;;8.84;72.67
71917;BME280;59793;46.506;6.674;2023-02-19T06:52:23;98137.53;;;8.84;72.43
71917;BME280;59793;46.506;6.674;2023-02-19T06:54:48;98130.97;;;8.73;72.72
71917;BME280;59793;46.506;6.674;2023-02-19T06:57:14;98131.16;;;8.77;72.31
71917;BME280;59793;46.506;6.674;2023-02-19T06:59:39;98140.06;;;8.98;71.91
71917;BME280;59793;46.506;6.674;2023-02-19T07:02:05;98136.94;;;8.88;71.88
71917;BME280;59793;46.506;6.674;2023-02-19T07:04:31;98125.91;;;8.77;71.69
71917;BME280;59793;46.506;6.674;2023-02-19T07:06:56;98146.78;;;8.82;72.32
71917;BME280;59793;46.506;6.674;2023-02-19T07:09:21;98112.88;;;8.72;71.92
71917;BME280;59793;46.506;6.674;2023-02-19T07:11:49;98145.28;;;8.90;71.69
71917;BME280;59793;46.506;6.674;2023-02-19T07:14:15;98165.66;;;9.15;70.78
71917;BME280;59793;46.506;6.674;2023-02-19T07:16:41;98154.59;;;9.04;70.67
71917;BME280;59793;46.506;6.674;2023-02-19T07:19:06;98160.94;;;9.03;70.64
71917;BME280;59793;46.506;6.674;2023-02-19T07:21:32;98164.06;;;9.05;71.29
71917;BME280;59793;46.506;6.674;2023-02-19T07:24:02;98166.13;;;9.17;72.03
71917;BME280;59793;46.506;6.674;2023-02-19T07:26:28;98157.78;;;9.15;72.68
71917;BME280;59793;46.506;6.674;2023-02-19T07:28:53;98157.06;;;9.01;74.40
71917;BME280;59793;46.506;6.674;2023-02-19T07:31:20;98163.19;;;9.19;74.43
71917;BME280;59793;46.506;6.674;2023-02-19T07:33:46;98172.81;;;9.32;73.86
71917;BME280;59793;46.506;6.674;2023-02-19T07:36:13;98188.31;;;9.42;74.27
71917;BME280;59793;46.506;6.674;2023-02-19T07:38:39;98188.88;;;9.62;73.69
71917;BME280;59793;46.506;6.674;2023-02-19T07:41:05;98191.53;;;9.79;73.40
71917;BME280;59793;46.506;6.674;2023-02-19T07:43:32;98134.84;;;9.64;72.15
71917;BME280;59793;46.506;6.674;2023-02-19T07:46:02;98201.06;;;10.32;71.81
71917;BME280;59793;46.506;6.674;2023-02-19T07:48:27;98183.09;;;10.25;71.29
71917;BME280;59793;46.506;6.674;2023-02-19T07:50:54;98171.94;;;10.28;70.31
71917;BME280;59793;46.506;6.674;2023-02-19T07:53:21;98162.78;;;10.26;70.94
71917;BME280;59793;46.506;6.674;2023-02-19T07:55:46;98177.31;;;9.97;70.22
71917;BME280;59793;46.506;6.674;2023-02-19T07:58:12;98206.44;;;10.10;70.24
71917;BME280;59793;46.506;6.674;2023-02-19T08:00:37;98217.59;;;10.24;70.40
71917;BME280;59793;46.506;6.674;2023-02-19T08:03:03;98214.41;;;10.36;70.19
71917;BME280;59793;46.506;6.674;2023-02-19T08:05:33;98220.72;;;10.35;69.75
71917;BME280;59793;46.506;6.674;2023-02-19T08:08:01;98216.22;;;10.18;68.51
71917;BME280;59793;46.506;6.674;2023-02-19T08:10:26;98230.78;;;10.15;68.72
71917;BME280;59793;46.506;6.674;2023-02-19T08:13:15;98231.22;;;10.09;69.07
71917;BME280;59793;46.506;6.674;2023-02-19T08:15:50;98206.72;;;9.91;67.10
71917;BME280;59793;46.506;6.674;2023-02-19T08:18:18;98216.47;;;9.90;67.07
71917;BME280;59793;46.506;6.674;2023-02-19T08:20:44;98237.41;;;10.13;66.88
71917;BME280;59793;46.506;6.674;2023-02-19T08:23:10;98244.13;;;10.27;66.40
71917;BME280;59793;46.506;6.674;2023-02-19T08:25:37;98247.72;;;10.40;64.56
71917;BME280;59793;46.506;6.674;2023-02-19T08:28:03;98250.19;;;10.45;64.23
71917;BME280;59793;46.506;6.674;2023-02-19T08:30:29;98232.22;;;10.47;65.04
71917;BME280;59793;46.506;6.674;2023-02-19T08:32:57;98239.94;;;10.52;64.89
71917;BME280;59793;46.506;6.674;2023-02-19T08:35:23;98205.06;;;10.38;65.57
71917;BME280;59793;46.506;6.674;2023-02-19T08:37:49;98239.03;;;10.74;64.59
71917;BME280;59793;46.506;6.674;2023-02-19T08:40:14;98229.41;;;10.70;64.43
71917;BME280;59793;46.506;6.674;2023-02-19T08:42:39;98228.16;;;10.59;64.36
71917;BME280;59793;46.506;6.674;2023-02-19T08:45:05;98215.47;;;10.61;64.61
71917;BME280;59793;46.506;6.674;2023-02-19T08:47:35;98245.75;;;11.19;62.61
71917;BME280;59793;46.506;6.674;2023-02-19T08:50:01;98243.63;;;11.59;60.84
71917;BME280;59793;46.506;6.674;2023-02-19T08:52:26;98173.13;;;11.60;59.47
71917;BME280;59793;46.506;6.674;2023-02-19T08:54:52;98218.63;;;11.86;59.42
71917;BME280;59793;46.506;6.674;2023-02-19T08:57:17;98211.50;;;12.08;58.26
71917;BME280;59793;46.506;6.674;2023-02-19T08:59:43;98238.84;;;12.12;56.08
71917;BME280;59793;46.506;6.674;2023-02-19T09:02:09;98210.81;;;11.99;56.87
71917;BME280;59793;46.506;6.674;2023-02-19T09:04:34;98210.97;;;12.23;56.57
71917;BME280;59793;46.506;6.674;2023-02-19T09:07:02;98227.44;;;12.62;55.47
71917;BME280;59793;46.506;6.674;2023-02-19T09:09:31;98230.72;;;12.92;55.13
71917;BME280;59793;46.506;6.674;2023-02-19T09:11:57;98198.00;;;12.97;52.93
71917;BME280;59793;46.506;6.674;2023-02-19T09:14:22;98229.47;;;13.23;53.95
71917;BME280;59793;46.506;6.674;2023-02-19T09:16:47;98170.41;;;13.31;52.75
71917;BME280;59793;46.506;6.674;2023-02-19T09:19:13;98243.53;;;13.84;52.25
71917;BME280;59793;46.506;6.674;2023-02-19T09:21:38;98199.09;;;13.41;51.41
71917;BME280;59793;46.506;6.674;2023-02-19T09:24:04;98214.66;;;12.97;53.09
71917;BME280;59793;46.506;6.674;2023-02-19T09:26:29;98213.34;;;12.70;54.74
71917;BME280;59793;46.506;6.674;2023-02-19T09:28:54;98234.00;;;12.77;55.14
71917;BME280;59793;46.506;6.674;2023-02-19T09:31:20;98240.25;;;12.72;54.20
71917;BME280;59793;46.506;6.674;2023-02-19T09:33:47;98232.75;;;12.74;54.12
71917;BME280;59793;46.506;6.674;2023-02-19T09:36:13;98249.88;;;12.56;55.68
71917;BME280;59793;46.506;6.674;2023-02-19T09:38:38;98253.41;;;12.60;56.64
71917;BME280;59793;46.506;6.674;2023-02-19T09:41:14;98224.59;;;12.46;55.20
71917;BME280;59793;46.506;6.674;2023-02-19T09:43:41;98208.81;;;12.16;55.55
71917;BME280;59793;46.506;6.674;2023-02-19T09:46:23;98229.16;;;12.58;54.66
71917;BME280;59793;46.506;6.674;2023-02-19T09:48:52;98242.03;;;12.80;53.49
71917;BME280;59793;46.506;6.674;2023-02-19T09:51:20;98237.41;;;12.77;52.58
71917;BME280;59793;46.506;6.674;2023-02-19T09:53:48;98232.78;;;13.07;52.09
71917;BME280;59793;46.506;6.674;2023-02-19T09:56:16;98241.47;;;13.53;51.91
71917;BME280;59793;46.506;6.674;2023-02-19T09:58:45;98239.91;;;13.77;51.75
71917;BME280;59793;46.506;6.674;2023-02-19T10:01:12;98244.88;;;13.66;51.12
71917;BME280;59793;46.506;6.674;2023-02-19T10:03:39;98246.31;;;13.76;51.58
71917;BME280;59793;46.506;6.674;2023-02-19T10:06:15;98231.44;;;13.71;51.14
71917;BME280;59793;46.506;6.674;2023-02-19T10:08:45;98243.13;;;13.82;51.79
71917;BME280;59793;46.506;6.674;2023-02-19T10:11:11;98250.81;;;13.38;52.46
71917;BME280;59793;46.506;6.674;2023-02-19T10:13:43;98242.56;;;13.07;54.12
71917;BME280;59793;46.506;6.674;2023-02-19T10:16:16;98256.75;;;13.35;54.19
71917;BME280;59793;46.506;6.674;2023-02-19T10:18:44;98235.84;;;13.79;53.29
71917;BME280;59793;46.506;6.674;2023-02-19T10:21:15;98249.06;;;14.44;51.99
71917;BME280;59793;46.506;6.674;2023-02-19T10:23:41;98238.38;;;14.53;52.22
71917;BME280;59793;46.506;6.674;2023-02-19T10:26:07;98232.91;;;14.62;51.50
71917;BME280;59793;46.506;6.674;2023-02-19T10:28:34;98249.22;;;14.76;50.32
71917;BME280;59793;46.506;6.674;2023-02-19T10:31:02;98240.88;;;14.62;50.67
71917;BME280;59793;46.506;6.674;2023-02-19T10:33:28;98223.94;;;14.26;51.17
71917;BME280;59793;46.506;6.674;2023-02-19T10:36:18;98239.25;;;14.57;50.95
71917;BME280;59793;46.506;6.674;2023-02-19T10:38:48;98258.97;;;14.72;50.81
71917;BME280;59793;46.506;6.674;2023-02-19T10:41:19;98245.34;;;14.73;49.85
71917;BME280;59793;46.506;6.674;2023-02-19T10:44:06;98257.06;;;14.72;50.37
71917;BME280;59793;46.506;6.674;2023-02-19T10:46:34;98260.03;;;14.43;51.77
71917;BME280;59793;46.506;6.674;2023-02-19T10:49:03;98251.47;;;14.90;51.07
71917;BME280;59793;46.506;6.674;2023-02-19T10:51:39;98234.94;;;15.24;50.05
71917;BME280;59793;46.506;6.674;2023-02-19T10:54:18;98243.34;;;15.26;50.36
71917;BME280;59793;46.506;6.674;2023-02-19T10:56:44;98243.25;;;15.39;49.57
71917;BME280;59793;46.506;6.674;2023-02-19T10:59:14;98238.59;;;15.20;49.97
71917;BME280;59793;46.506;6.674;2023-02-19T11:02:00;98234.41;;;15.82;49.70
71917;BME280;59793;46.506;6.674;2023-02-19T11:04:32;98235.19;;;14.75;51.23
71917;BME280;59793;46.506;6.674;2023-02-19T11:07:14;98241.03;;;15.41;50.34
71917;BME280;59793;46.506;6.674;2023-02-19T11:09:43;98224.91;;;15.49;50.08
71917;BME280;59793;46.506;6.674;2023-02-19T11:12:11;98217.78;;;15.22;50.63
71917;BME280;59793;46.506;6.674;2023-02-19T11:14:41;98226.53;;;15.54;49.78
71917;BME280;59793;46.506;6.674;2023-02-19T11:17:24;98220.28;;;16.13;48.50
71917;BME280;59793;46.506;6.674;2023-02-19T11:19:55;98220.81;;;16.03;48.39
71917;BME280;59793;46.506;6.674;2023-02-19T11:22:36;98228.28;;;16.52;48.01
71917;BME280;59793;46.506;6.674;2023-02-19T11:28:02;98208.34;;;17.04;46.18
71917;BME280;59793;46.506;6.674;2023-02-19T11:35:40;98201.69;;;16.33;47.19
71917;BME280;59793;46.506;6.674;2023-02-19T11:38:09;98198.94;;;16.10;47.87
71917;BME280;59793;46.506;6.674;2023-02-19T11:43:32;98197.59;;;16.39;47.53
71917;BME280;59793;46.506;6.674;2023-02-19T11:46:12;98192.00;;;16.05;47.84
71917;BME280;59793;46.506;6.674;2023-02-19T11:54:17;98165.25;;;16.76;45.90
71917;BME280;59793;46.506;6.674;2023-02-19T11:56:52;98161.63;;;17.33;43.97
71917;BME280;59793;46.506;6.674;2023-02-19T12:02:30;98168.00;;;16.79;46.55
71917;BME280;59793;46.506;6.674;2023-02-19T12:10:23;98157.59;;;16.12;50.07
71917;BME280;59793;46.506;6.674;2023-02-19T12:24:14;98127.88;;;16.91;48.20
71917;BME280;59793;46.506;6.674;2023-02-19T12:43:20;98129.69;;;16.64;47.40
71917;BME280;59793;46.506;6.674;2023-02-19T12:48:12;98127.75;;;17.07;45.96
71917;BME280;59793;46.506;6.674;2023-02-19T12:50:43;98129.78;;;17.40;45.13
71917;BME280;59793;46.506;6.674;2023-02-19T12:56:16;98086.97;;;17.83;43.09
71917;BME280;59793;46.506;6.674;2023-02-19T12:58:53;98119.41;;;18.22;42.17
71917;BME280;59793;46.506;6.674;2023-02-19T13:01:34;98107.34;;;18.35;41.13
71917;BME280;59793;46.506;6.674;2023-02-19T13:07:01;98126.69;;;18.62;39.78
71917;BME280;59793;46.506;6.674;2023-02-19T13:09:45;98092.53;;;18.79;40.17
71917;BME280;59793;46.506;6.674;2023-02-19T13:12:38;98103.44;;;18.63;40.33
71917;BME280;59793;46.506;6.674;2023-02-19T13:17:49;98082.31;;;18.47;39.88
71917;BME280;59793;46.506;6.674;2023-02-19T13:20:36;98101.06;;;18.54;40.33
71917;BME280;59793;46.506;6.674;2023-02-19T13:23:11;98082.56;;;17.98;41.85
71917;BME280;59793;46.506;6.674;2023-02-19T13:31:53;98099.47;;;18.46;40.08
71917;BME280;59793;46.506;6.674;2023-02-19T13:36:55;98098.22;;;18.74;40.27
71917;BME280;59793;46.506;6.674;2023-02-19T13:39:21;98084.69;;;18.56;40.60
71917;BME280;59793;46.506;6.674;2023-02-19T13:41:55;98088.31;;;18.74;39.15
71917;BME280;59793;46.506;6.674;2023-02-19T13:44:26;98085.31;;;18.83;40.07
71917;BME280;59793;46.506;6.674;2023-02-19T13:46:52;98087.56;;;18.77;39.78
71917;BME280;59793;46.506;6.674;2023-02-19T13:54:43;98071.63;;;18.88;39.02
71917;BME280;59793;46.506;6.674;2023-02-19T13:59:50;98074.59;;;18.35;40.10
71917;BME280;59793;46.506;6.674;2023-02-19T14:07:33;98085.69;;;18.03;40.28
71917;BME280;59793;46.506;6.674;2023-02-19T14:10:00;98090.94;;;17.69;41.76
71917;BME280;59793;46.506;6.674;2023-02-19T14:12:34;98058.94;;;17.66;42.53
71917;BME280;59793;46.506;6.674;2023-02-19T14:18:42;98068.69;;;18.19;40.87
71917;BME280;59793;46.506;6.674;2023-02-19T14:21:39;98062.81;;;18.39;39.73
71917;BME280;59793;46.506;6.674;2023-02-19T14:24:10;98025.94;;;18.11;39.65
71917;BME280;59793;46.506;6.674;2023-02-19T14:26:36;98031.06;;;18.27;39.85
71917;BME280;59793;46.506;6.674;2023-02-19T14:29:03;98025.63;;;18.17;40.93
71917;BME280;59793;46.506;6.674;2023-02-19T14:31:35;98047.56;;;18.40;39.88
71917;BME280;59793;46.506;6.674;2023-02-19T14:34:04;98041.97;;;18.52;39.70
71917;BME280;59793;46.506;6.674;2023-02-19T14:39:26;98033.97;;;19.07;38.70
71917;BME280;59793;46.506;6.674;2023-02-19T14:41:57;98021.28;;;18.01;40.66
71917;BME280;59793;46.506;6.674;2023-02-19T14:44:28;98040.38;;;17.16;43.31
71917;BME280;59793;46.506;6.674;2023-02-19T14:47:07;98032.88;;;16.72;44.54
71917;BME280;59793;46.506;6.674;2023-02-19T14:52:25;98003.34;;;16.09;47.09
71917;BME280;59793;46.506;6.674;2023-02-19T14:55:07;98005.00;;;16.40;45.91
71917;BME280;59793;46.506;6.674;2023-02-19T14:57:42;98007.13;;;16.77;44.11
71917;BME280;59793;46.506;6.674;2023-02-19T15:00:22;98053.06;;;17.53;42.92
71917;BME280;59793;46.506;6.674;2023-02-19T15:02:51;98050.75;;;18.56;40.71
71917;BME280;59793;46.506;6.674;2023-02-19T15:05:24;98025.84;;;19.55;37.97
71917;BME280;59793;46.506;6.674;2023-02-19T15:07:52;98054.44;;;20.74;36.19
71917;BME280;59793;46.506;6.674;2023-02-19T15:10:19;98063.16;;;21.43;34.76
71917;BME280;59793;46.506;6.674;2023-02-19T15:12:49;98061.06;;;21.86;33.83
71917;BME280;59793;46.506;6.674;2023-02-19T15:15:19;98044.91;;;21.97;32.80
71917;BME280;59793;46.506;6.674;2023-02-19T15:17:46;98020.56;;;21.66;33.24
71917;BME280;59793;46.506;6.674;2023-02-19T15:20:17;98035.84;;;21.66;33.04
71917;BME280;59793;46.506;6.674;2023-02-19T15:22:43;98043.19;;;21.55;33.23